createdAt,value
2023-03-17T00:00:09.341Z,9.17
2023-03-17T00:00:37.321Z,9.17
2023-03-17T00:00:58.381Z,9.17
2023-03-17T00:01:28.547Z,9.17
2023-03-17T00:02:02.612Z,9.17
2023-03-17T00:02:32.366Z,8.85
2023-03-17T00:03:04.359Z,8.85
2023-03-17T00:03:37.425Z,8.85
2023-03-17T00:04:08.336Z,8.85
2023-03-17T00:04:37.164Z,8.85
2023-03-17T00:04:57.499Z,9.01
2023-03-17T00:05:29.117Z,9.74
2023-03-17T00:06:00.430Z,9.74
2023-03-17T00:06:17.171Z,9.74
2023-03-17T00:06:37.646Z,9.74
2023-03-17T00:07:04.916Z,9.01
2023-03-17T00:07:37.325Z,8.29
2023-03-17T00:08:08.433Z,8.29
2023-03-17T00:08:37.532Z,9.01
2023-03-17T00:08:57.414Z,9.01
2023-03-17T00:09:28.945Z,9.74
2023-03-17T00:10:01.426Z,10.46
2023-03-17T00:10:17.451Z,10.62
2023-03-17T00:10:38.552Z,10.62
2023-03-17T00:11:04.581Z,10.62
2023-03-17T00:11:37.461Z,10.62
2023-03-17T00:12:08.518Z,10.62
2023-03-17T00:12:37.581Z,10.62
2023-03-17T00:12:57.376Z,10.62
2023-03-17T00:13:28.323Z,10.62
2023-03-17T00:14:00.428Z,10.62
2023-03-17T00:14:17.332Z,10.46
2023-03-17T00:14:37.975Z,10.46
2023-03-17T00:15:06.737Z,10.62
2023-03-17T00:15:40.330Z,10.62
2023-03-17T00:16:08.511Z,10.62
2023-03-17T00:16:37.507Z,10.62
2023-03-17T00:16:57.287Z,10.46
2023-03-17T00:17:28.392Z,10.46
2023-03-17T00:18:00.524Z,10.46
2023-03-17T00:18:17.436Z,10.06
2023-03-17T00:18:38.020Z,10.06
2023-03-17T00:19:04.345Z,10.06
2023-03-17T00:19:37.125Z,10.06
2023-03-17T00:20:08.958Z,10.06
2023-03-17T00:20:37.236Z,10.06
2023-03-17T00:20:57.723Z,10.46
2023-03-17T00:21:28.361Z,9.90
2023-03-17T00:22:00.651Z,9.90
2023-03-17T00:22:17.270Z,9.17
2023-03-17T00:22:37.973Z,9.17
2023-03-17T00:23:04.808Z,9.74
2023-03-17T00:23:37.400Z,9.74
2023-03-17T00:24:08.575Z,9.74
2023-03-17T00:24:37.378Z,10.46
2023-03-17T00:24:57.176Z,10.78
2023-03-17T00:25:29.952Z,10.78
2023-03-17T00:26:01.443Z,10.78
2023-03-17T00:26:32.529Z,10.78
2023-03-17T00:27:04.648Z,11.50
2023-03-17T00:27:37.400Z,11.50
2023-03-17T00:28:08.325Z,11.50
2023-03-17T00:28:37.624Z,11.50
2023-03-17T00:28:57.362Z,11.50
2023-03-17T00:29:29.230Z,11.50
2023-03-17T00:30:02.723Z,11.90
2023-03-17T00:30:17.528Z,11.50
2023-03-17T00:30:38.802Z,11.50
2023-03-17T00:31:04.470Z,10.94
2023-03-17T00:31:37.244Z,10.94
2023-03-17T00:32:09.411Z,10.94
2023-03-17T00:32:38.502Z,10.94
2023-03-17T00:32:57.499Z,10.94
2023-03-17T00:33:28.525Z,10.94
2023-03-17T00:34:00.320Z,10.94
2023-03-17T00:34:17.187Z,10.94
2023-03-17T00:34:37.986Z,11.50
2023-03-17T00:35:05.975Z,11.50
2023-03-17T00:35:37.417Z,11.90
2023-03-17T00:36:09.099Z,11.90
2023-03-17T00:36:37.451Z,11.90
2023-03-17T00:36:57.596Z,12.07
2023-03-17T00:37:28.678Z,12.23
2023-03-17T00:38:00.836Z,12.23
2023-03-17T00:38:17.271Z,12.23
2023-03-17T00:38:37.939Z,12.23
2023-03-17T00:39:04.451Z,12.23
2023-03-17T00:39:37.455Z,12.23
2023-03-17T00:40:13.750Z,12.23
2023-03-17T00:40:37.197Z,12.23
2023-03-17T00:40:57.954Z,12.23
2023-03-17T00:41:28.935Z,12.23
2023-03-17T00:42:00.425Z,12.23
2023-03-17T00:42:17.383Z,12.07
2023-03-17T00:42:37.963Z,11.50
2023-03-17T00:43:04.283Z,10.94
2023-03-17T00:43:38.188Z,10.62
2023-03-17T00:44:08.541Z,10.46
2023-03-17T00:44:37.222Z,10.46
2023-03-17T00:44:57.257Z,10.46
2023-03-17T00:45:29.190Z,10.46
2023-03-17T00:46:00.732Z,10.46
2023-03-17T00:46:17.267Z,9.90
2023-03-17T00:46:37.977Z,9.49
2023-03-17T00:47:04.426Z,9.33
2023-03-17T00:47:37.355Z,9.49
2023-03-17T00:48:08.568Z,9.49
2023-03-17T00:48:37.479Z,9.01
2023-03-17T00:48:57.162Z,9.49
2023-03-17T00:49:28.411Z,9.49
2023-03-17T00:50:01.287Z,9.01
2023-03-17T00:50:17.429Z,9.01
2023-03-17T00:50:38.153Z,9.01
2023-03-17T00:51:04.337Z,9.49
2023-03-17T00:51:37.515Z,9.65
2023-03-17T00:52:08.606Z,9.65
2023-03-17T00:52:37.283Z,10.06
2023-03-17T00:52:57.530Z,10.78
2023-03-17T00:53:28.381Z,10.78
2023-03-17T00:54:00.335Z,10.78
2023-03-17T00:54:17.157Z,10.06
2023-03-17T00:54:37.959Z,9.65
2023-03-17T00:55:06.135Z,10.06
2023-03-17T00:55:37.177Z,10.46
2023-03-17T00:56:08.436Z,10.62
2023-03-17T00:56:37.506Z,10.62
2023-03-17T00:56:57.270Z,10.62
2023-03-17T00:57:28.497Z,10.62
2023-03-17T00:58:00.484Z,10.46
2023-03-17T00:58:17.246Z,10.62
2023-03-17T00:58:38.069Z,10.78
2023-03-17T00:59:04.261Z,10.78
2023-03-17T00:59:37.229Z,10.78
2023-03-17T01:00:10.034Z,10.78
2023-03-17T01:00:37.505Z,10.78
2023-03-17T01:00:59.087Z,10.78
2023-03-17T01:01:28.634Z,10.78
2023-03-17T01:02:00.326Z,10.78
2023-03-17T01:02:17.228Z,11.67
2023-03-17T01:02:37.729Z,11.67
2023-03-17T01:03:04.263Z,12.23
2023-03-17T01:03:37.468Z,12.23
2023-03-17T01:04:08.628Z,12.23
2023-03-17T01:04:37.266Z,12.55
2023-03-17T01:05:05.671Z,12.55
2023-03-17T01:05:29.152Z,12.55
2023-03-17T01:06:00.356Z,12.55
2023-03-17T01:06:17.141Z,12.55
2023-03-17T01:06:37.851Z,12.55
2023-03-17T01:07:04.405Z,12.55
2023-03-17T01:07:37.219Z,12.55
2023-03-17T01:08:08.817Z,12.55
2023-03-17T01:08:37.272Z,12.55
2023-03-17T01:08:57.316Z,12.39
2023-03-17T01:09:28.374Z,12.39
2023-03-17T01:10:00.773Z,12.23
2023-03-17T01:10:17.222Z,12.07
2023-03-17T01:10:38.180Z,11.90
2023-03-17T01:11:04.442Z,11.90
2023-03-17T01:11:39.724Z,11.74
2023-03-17T01:12:08.510Z,11.74
2023-03-17T01:12:37.627Z,11.74
2023-03-17T01:12:57.246Z,11.58
2023-03-17T01:13:28.681Z,11.18
2023-03-17T01:14:00.659Z,10.78
2023-03-17T01:14:17.144Z,10.62
2023-03-17T01:14:38.110Z,10.30
2023-03-17T01:15:06.252Z,10.30
2023-03-17T01:15:37.474Z,10.13
2023-03-17T01:16:08.453Z,9.73
2023-03-17T01:16:37.266Z,9.73
2023-03-17T01:16:57.229Z,10.13
2023-03-17T01:17:28.860Z,10.30
2023-03-17T01:18:00.337Z,9.89
2023-03-17T01:18:17.536Z,9.49
2023-03-17T01:18:38.407Z,9.49
2023-03-17T01:19:04.420Z,9.49
2023-03-17T01:19:37.645Z,9.33
2023-03-17T01:20:08.845Z,9.01
2023-03-17T01:20:37.214Z,9.01
2023-03-17T01:20:57.580Z,9.01
2023-03-17T01:21:28.883Z,8.69
2023-03-17T01:22:01.058Z,8.69
2023-03-17T01:22:17.211Z,8.69
2023-03-17T01:22:37.820Z,9.17
2023-03-17T01:23:05.675Z,10.06
2023-03-17T01:23:37.230Z,10.06
2023-03-17T01:24:08.685Z,11.18
2023-03-17T01:24:37.267Z,11.18
2023-03-17T01:24:57.771Z,11.90
2023-03-17T01:25:29.789Z,11.18
2023-03-17T01:26:00.438Z,11.18
2023-03-17T01:26:17.407Z,11.18
2023-03-17T01:26:38.355Z,11.90
2023-03-17T01:27:04.498Z,12.07
2023-03-17T01:27:37.169Z,12.23
2023-03-17T01:28:08.390Z,12.23
2023-03-17T01:28:37.685Z,12.63
2023-03-17T01:28:57.253Z,12.79
2023-03-17T01:29:28.457Z,13.03
2023-03-17T01:30:01.535Z,13.03
2023-03-17T01:30:17.284Z,13.03
2023-03-17T01:30:38.780Z,12.79
2023-03-17T01:31:04.638Z,12.79
2023-03-17T01:31:37.767Z,13.35
2023-03-17T01:32:08.330Z,12.79
2023-03-17T01:32:37.269Z,12.79
2023-03-17T01:32:57.336Z,12.55
2023-03-17T01:33:29.457Z,12.55
2023-03-17T01:34:00.416Z,12.55
2023-03-17T01:34:17.114Z,12.55
2023-03-17T01:34:37.883Z,13.11
2023-03-17T01:35:05.793Z,13.11
2023-03-17T01:35:37.278Z,12.79
2023-03-17T01:36:08.529Z,12.79
2023-03-17T01:36:38.108Z,12.79
2023-03-17T01:36:57.392Z,12.79
2023-03-17T01:37:28.730Z,12.79
2023-03-17T01:38:00.550Z,13.35
2023-03-17T01:38:17.132Z,13.35
2023-03-17T01:38:37.832Z,14.00
2023-03-17T01:39:04.499Z,14.56
2023-03-17T01:39:37.236Z,14.56
2023-03-17T01:40:08.761Z,14.00
2023-03-17T01:40:37.193Z,14.00
2023-03-17T01:40:57.711Z,14.56
2023-03-17T01:41:28.960Z,15.13
2023-03-17T01:42:00.338Z,15.13
2023-03-17T01:42:17.253Z,15.13
2023-03-17T01:42:38.203Z,14.89
2023-03-17T01:43:04.366Z,14.89
2023-03-17T01:43:37.771Z,14.89
2023-03-17T01:44:08.501Z,15.05
2023-03-17T01:44:37.423Z,15.29
2023-03-17T01:44:57.484Z,15.29
2023-03-17T01:45:30.092Z,15.29
2023-03-17T01:46:00.390Z,15.29
2023-03-17T01:46:17.178Z,14.24
2023-03-17T01:46:38.228Z,13.67
2023-03-17T01:47:04.267Z,13.67
2023-03-17T01:47:37.579Z,13.67
2023-03-17T01:48:08.481Z,13.67
2023-03-17T01:48:37.591Z,13.67
2023-03-17T01:48:57.600Z,13.67
2023-03-17T01:49:28.746Z,13.67
2023-03-17T01:50:00.713Z,13.35
2023-03-17T01:50:17.160Z,12.63
2023-03-17T01:50:38.668Z,12.79
2023-03-17T01:51:04.316Z,12.79
2023-03-17T01:51:37.237Z,12.79
2023-03-17T01:52:08.435Z,12.79
2023-03-17T01:52:37.292Z,12.07
2023-03-17T01:52:57.257Z,12.07
2023-03-17T01:53:28.546Z,11.58
2023-03-17T01:54:00.349Z,11.34
2023-03-17T01:54:17.251Z,10.94
2023-03-17T01:54:37.862Z,10.62
2023-03-17T01:55:05.946Z,10.46
2023-03-17T01:55:37.229Z,10.46
2023-03-17T01:56:08.467Z,10.46
2023-03-17T01:56:37.185Z,10.46
2023-03-17T01:56:57.340Z,10.46
2023-03-17T01:57:28.713Z,10.46
2023-03-17T01:58:00.328Z,10.46
2023-03-17T01:58:17.240Z,10.46
2023-03-17T01:58:38.276Z,10.46
2023-03-17T01:59:04.263Z,10.46
2023-03-17T01:59:37.270Z,10.30
2023-03-17T02:00:09.502Z,9.89
2023-03-17T02:00:37.308Z,9.89
2023-03-17T02:00:57.940Z,10.30
2023-03-17T02:01:28.813Z,10.46
2023-03-17T02:02:00.319Z,10.30
2023-03-17T02:02:17.419Z,9.89
2023-03-17T02:02:37.984Z,9.89
2023-03-17T02:03:04.281Z,10.30
2023-03-17T02:03:37.652Z,9.89
2023-03-17T02:04:08.531Z,9.89
2023-03-17T02:04:37.734Z,9.65
2023-03-17T02:04:57.305Z,9.65
2023-03-17T02:05:29.100Z,9.65
2023-03-17T02:06:00.500Z,9.65
2023-03-17T02:06:17.225Z,9.65
2023-03-17T02:06:47.480Z,9.65
2023-03-17T02:07:04.301Z,9.49
2023-03-17T02:07:37.247Z,9.33
2023-03-17T02:08:08.397Z,9.49
2023-03-17T02:08:37.412Z,9.65
2023-03-17T02:08:57.289Z,9.65
2023-03-17T02:09:28.763Z,9.49
2023-03-17T02:10:00.996Z,9.33
2023-03-17T02:10:17.315Z,9.17
2023-03-17T02:10:38.179Z,9.17
2023-03-17T02:11:04.339Z,9.33
2023-03-17T02:11:37.230Z,9.49
2023-03-17T02:12:08.432Z,9.49
2023-03-17T02:12:37.304Z,9.65
2023-03-17T02:12:57.472Z,9.65
2023-03-17T02:13:28.916Z,9.65
2023-03-17T02:14:00.319Z,9.65
2023-03-17T02:14:17.257Z,9.49
2023-03-17T02:14:37.943Z,9.33
2023-03-17T02:15:04.561Z,9.33
2023-03-17T02:15:36.256Z,9.33
2023-03-17T02:16:07.215Z,9.33
2023-03-17T02:16:36.320Z,9.49
2023-03-17T02:16:56.370Z,9.49
2023-03-17T02:17:27.379Z,9.33
2023-03-17T02:17:58.848Z,9.33
2023-03-17T02:18:16.225Z,9.33
2023-03-17T02:18:36.364Z,9.17
2023-03-17T02:19:03.356Z,9.33
2023-03-17T02:19:35.909Z,9.17
2023-03-17T02:20:08.032Z,9.01
2023-03-17T02:20:35.955Z,8.85
2023-03-17T02:20:57.410Z,8.85
2023-03-17T02:21:26.856Z,8.29
2023-03-17T02:21:59.450Z,8.85
2023-03-17T02:22:15.815Z,8.85
2023-03-17T02:22:36.384Z,9.01
2023-03-17T02:23:03.348Z,9.01
2023-03-17T02:23:35.814Z,8.85
2023-03-17T02:24:06.969Z,8.85
2023-03-17T02:24:36.364Z,8.85
2023-03-17T02:24:56.394Z,9.01
2023-03-17T02:25:27.734Z,8.69
2023-03-17T02:25:59.242Z,8.69
2023-03-17T02:26:16.106Z,8.29
2023-03-17T02:26:37.090Z,8.29
2023-03-17T02:27:03.279Z,8.69
2023-03-17T02:27:36.086Z,8.69
2023-03-17T02:28:07.200Z,8.69
2023-03-17T02:28:36.146Z,9.01
2023-03-17T02:28:56.208Z,9.01
2023-03-17T02:29:27.265Z,9.49
2023-03-17T02:29:59.278Z,9.01
2023-03-17T02:30:17.052Z,9.01
2023-03-17T02:30:36.473Z,9.01
2023-03-17T02:31:03.475Z,9.01
2023-03-17T02:31:36.340Z,9.17
2023-03-17T02:32:07.489Z,9.89
2023-03-17T02:32:36.018Z,10.30
2023-03-17T02:32:56.436Z,10.13
2023-03-17T02:33:27.293Z,9.89
2023-03-17T02:33:59.240Z,9.49
2023-03-17T02:34:16.269Z,9.89
2023-03-17T02:34:36.573Z,10.30
2023-03-17T02:35:03.713Z,10.46
2023-03-17T02:35:36.199Z,10.62
2023-03-17T02:36:07.279Z,10.62
2023-03-17T02:36:36.165Z,10.94
2023-03-17T02:36:57.056Z,10.94
2023-03-17T02:37:27.263Z,10.94
2023-03-17T02:37:59.241Z,10.94
2023-03-17T02:38:17.023Z,11.50
2023-03-17T02:38:37.351Z,12.23
2023-03-17T02:39:03.957Z,12.79
2023-03-17T02:39:36.866Z,12.79
2023-03-17T02:40:08.510Z,12.23
2023-03-17T02:40:53.215Z,11.50
2023-03-17T02:41:19.243Z,10.62
2023-03-17T02:41:40.317Z,10.46
2023-03-17T02:42:03.495Z,10.46
2023-03-17T02:42:19.630Z,10.46
2023-03-17T02:42:40.124Z,10.46
2023-03-17T02:43:05.817Z,10.62
2023-03-17T02:43:38.910Z,10.62
2023-03-17T02:44:09.397Z,10.62
2023-03-17T02:44:38.206Z,10.62
2023-03-17T02:44:57.859Z,9.58
2023-03-17T02:45:29.972Z,9.41
2023-03-17T02:46:00.973Z,8.69
2023-03-17T02:46:17.774Z,8.45
2023-03-17T02:46:38.038Z,9.41
2023-03-17T02:47:04.445Z,9.17
2023-03-17T02:47:38.332Z,8.45
2023-03-17T02:48:09.557Z,8.45
2023-03-17T02:48:37.799Z,8.45
2023-03-17T02:48:57.248Z,8.45
2023-03-17T02:49:28.364Z,8.45
2023-03-17T02:50:00.965Z,9.01
2023-03-17T02:50:17.254Z,9.49
2023-03-17T02:50:38.137Z,9.89
2023-03-17T02:51:04.562Z,9.89
2023-03-17T02:51:37.170Z,10.30
2023-03-17T02:52:08.388Z,10.30
2023-03-17T02:52:37.106Z,10.30
2023-03-17T02:52:57.324Z,10.30
2023-03-17T02:53:28.426Z,9.89
2023-03-17T02:54:00.569Z,10.30
2023-03-17T02:54:17.113Z,10.62
2023-03-17T02:54:37.748Z,10.78
2023-03-17T02:55:05.667Z,10.78
2023-03-17T02:55:37.222Z,10.78
2023-03-17T02:56:08.384Z,10.78
2023-03-17T02:56:37.232Z,11.34
2023-03-17T02:56:57.288Z,11.34
2023-03-17T02:57:28.335Z,11.34
2023-03-17T02:58:00.537Z,11.34
2023-03-17T02:58:17.134Z,11.34
2023-03-17T02:58:37.718Z,11.34
2023-03-17T02:59:04.382Z,10.46
2023-03-17T02:59:37.338Z,9.73
2023-03-17T03:00:09.371Z,10.46
2023-03-17T03:00:37.295Z,10.46
2023-03-17T03:00:57.594Z,10.46
2023-03-17T03:01:28.560Z,9.73
2023-03-17T03:02:00.525Z,9.17
2023-03-17T03:02:17.445Z,9.17
2023-03-17T03:02:37.845Z,9.01
2023-03-17T03:03:04.285Z,9.01
2023-03-17T03:03:37.225Z,9.01
2023-03-17T03:04:08.402Z,9.17
2023-03-17T03:04:37.230Z,8.85
2023-03-17T03:04:57.203Z,8.85
2023-03-17T03:05:28.954Z,8.45
2023-03-17T03:06:03.029Z,8.85
2023-03-17T03:06:17.182Z,9.01
2023-03-17T03:06:37.774Z,9.17
2023-03-17T03:07:04.406Z,9.17
2023-03-17T03:07:37.265Z,9.33
2023-03-17T03:08:08.809Z,9.89
2023-03-17T03:08:37.370Z,10.30
2023-03-17T03:08:57.175Z,9.89
2023-03-17T03:09:28.327Z,9.89
2023-03-17T03:10:00.986Z,9.65
2023-03-17T03:10:17.062Z,9.89
2023-03-17T03:10:38.175Z,10.30
2023-03-17T03:11:04.350Z,10.30
2023-03-17T03:11:37.450Z,10.30
2023-03-17T03:12:08.363Z,9.89
2023-03-17T03:12:37.275Z,9.65
2023-03-17T03:12:57.155Z,9.49
2023-03-17T03:13:28.285Z,9.49
2023-03-17T03:14:00.449Z,9.49
2023-03-17T03:14:17.057Z,9.89
2023-03-17T03:14:37.919Z,10.30
2023-03-17T03:15:06.264Z,9.89
2023-03-17T03:15:37.291Z,9.49
2023-03-17T03:16:08.711Z,9.49
2023-03-17T03:16:37.297Z,9.33
2023-03-17T03:16:57.292Z,9.33
2023-03-17T03:17:28.431Z,9.33
2023-03-17T03:18:00.504Z,9.33
2023-03-17T03:18:17.181Z,9.33
2023-03-17T03:18:37.840Z,9.33
2023-03-17T03:19:04.673Z,9.17
2023-03-17T03:19:37.218Z,9.17
2023-03-17T03:20:09.779Z,9.33
2023-03-17T03:20:37.207Z,9.33
2023-03-17T03:20:57.588Z,9.33
2023-03-17T03:21:28.366Z,9.33
2023-03-17T03:22:00.509Z,9.33
2023-03-17T03:22:17.180Z,9.33
2023-03-17T03:22:37.888Z,9.33
2023-03-17T03:23:04.379Z,9.33
2023-03-17T03:23:37.201Z,9.33
2023-03-17T03:24:08.558Z,9.33
2023-03-17T03:24:37.248Z,9.33
2023-03-17T03:24:57.174Z,9.33
2023-03-17T03:25:28.717Z,9.33
2023-03-17T03:26:00.444Z,9.17
2023-03-17T03:26:17.079Z,9.01
2023-03-17T03:26:38.301Z,9.01
2023-03-17T03:27:04.599Z,9.01
2023-03-17T03:27:37.257Z,8.85
2023-03-17T03:28:08.542Z,8.85
2023-03-17T03:28:37.293Z,8.45
2023-03-17T03:28:57.547Z,7.72
2023-03-17T03:29:28.406Z,7.24
2023-03-17T03:30:01.587Z,7.24
2023-03-17T03:30:17.191Z,7.24
2023-03-17T03:30:38.314Z,7.24
2023-03-17T03:31:04.379Z,7.24
2023-03-17T03:31:37.162Z,7.24
2023-03-17T03:32:08.462Z,7.24
2023-03-17T03:32:37.250Z,7.24
2023-03-17T03:32:57.241Z,7.24
2023-03-17T03:33:28.719Z,7.24
2023-03-17T03:34:00.506Z,7.24
2023-03-17T03:34:17.067Z,7.08
2023-03-17T03:34:37.761Z,7.08
2023-03-17T03:35:05.607Z,7.08
2023-03-17T03:35:37.347Z,7.08
2023-03-17T03:36:08.476Z,6.68
2023-03-17T03:36:37.376Z,6.43
2023-03-17T03:36:57.245Z,6.68
2023-03-17T03:37:28.338Z,5.95
2023-03-17T03:38:00.438Z,5.47
2023-03-17T03:38:17.331Z,5.47
2023-03-17T03:38:37.810Z,5.47
2023-03-17T03:39:04.625Z,5.47
2023-03-17T03:39:37.207Z,5.23
2023-03-17T03:40:08.825Z,5.23
2023-03-17T03:40:37.288Z,5.23
2023-03-17T03:40:57.516Z,4.82
2023-03-17T03:41:28.304Z,4.82
2023-03-17T03:42:00.478Z,5.06
2023-03-17T03:42:17.098Z,5.06
2023-03-17T03:42:37.877Z,4.66
2023-03-17T03:43:16.341Z,5.06
2023-03-17T03:43:37.286Z,5.23
2023-03-17T03:44:09.595Z,5.23
2023-03-17T03:44:37.276Z,5.23
2023-03-17T03:44:57.267Z,5.23
2023-03-17T03:45:29.061Z,5.23
2023-03-17T03:46:00.533Z,4.82
2023-03-17T03:46:17.163Z,4.66
2023-03-17T03:46:37.761Z,4.66
2023-03-17T03:47:04.302Z,4.50
2023-03-17T03:47:37.149Z,4.18
2023-03-17T03:48:08.481Z,3.78
2023-03-17T03:48:37.758Z,3.54
2023-03-17T03:48:57.177Z,3.54
2023-03-17T03:49:28.216Z,3.54
2023-03-17T03:50:00.977Z,3.54
2023-03-17T03:50:17.258Z,3.54
2023-03-17T03:50:38.092Z,3.05
2023-03-17T03:51:04.345Z,2.57
2023-03-17T03:51:37.143Z,2.33
2023-03-17T03:52:08.518Z,2.09
2023-03-17T03:52:37.296Z,2.09
2023-03-17T03:52:57.256Z,2.09
2023-03-17T03:53:28.323Z,2.09
2023-03-17T03:54:00.466Z,2.09
2023-03-17T03:54:17.079Z,2.33
2023-03-17T03:54:38.005Z,2.73
2023-03-17T03:55:05.539Z,2.73
2023-03-17T03:55:37.717Z,2.33
2023-03-17T03:56:08.424Z,2.33
2023-03-17T03:56:37.799Z,2.73
2023-03-17T03:56:57.338Z,2.73
2023-03-17T03:57:28.324Z,2.33
2023-03-17T03:58:00.476Z,2.09
2023-03-17T03:58:17.062Z,2.09
2023-03-17T03:58:37.959Z,2.09
2023-03-17T03:59:04.404Z,2.09
2023-03-17T03:59:37.163Z,2.09
2023-03-17T04:00:09.694Z,2.09
2023-03-17T04:00:37.289Z,2.09
2023-03-17T04:00:58.273Z,1.93
2023-03-17T04:01:28.234Z,2.09
2023-03-17T04:02:00.511Z,2.09
2023-03-17T04:02:17.287Z,2.09
2023-03-17T04:02:37.811Z,2.09
2023-03-17T04:03:04.491Z,2.09
2023-03-17T04:03:37.160Z,2.09
2023-03-17T04:04:08.501Z,2.09
2023-03-17T04:04:37.285Z,2.33
2023-03-17T04:04:57.383Z,2.73
2023-03-17T04:05:28.608Z,2.73
2023-03-17T04:06:00.540Z,3.05
2023-03-17T04:06:17.436Z,3.61
2023-03-17T04:06:37.917Z,5.23
2023-03-17T04:07:04.296Z,6.43
2023-03-17T04:07:37.149Z,6.43
2023-03-17T04:08:08.438Z,6.43
2023-03-17T04:08:37.295Z,6.43
2023-03-17T04:08:58.433Z,6.43
2023-03-17T04:09:28.298Z,6.43
2023-03-17T04:10:01.033Z,6.68
2023-03-17T04:10:17.275Z,7.08
2023-03-17T04:10:38.252Z,7.08
2023-03-17T04:11:04.429Z,6.68
2023-03-17T04:11:37.184Z,6.43
2023-03-17T04:12:08.782Z,6.68
2023-03-17T04:12:37.249Z,7.08
2023-03-17T04:12:57.289Z,6.68
2023-03-17T04:13:28.333Z,6.68
2023-03-17T04:14:00.713Z,7.24
2023-03-17T04:14:17.137Z,7.24
2023-03-17T04:14:37.696Z,7.72
2023-03-17T04:15:06.109Z,7.88
2023-03-17T04:15:37.255Z,7.88
2023-03-17T04:16:08.524Z,8.04
2023-03-17T04:16:37.247Z,8.04
2023-03-17T04:16:57.375Z,8.61
2023-03-17T04:17:28.508Z,9.17
2023-03-17T04:18:00.462Z,9.49
2023-03-17T04:18:17.125Z,10.06
2023-03-17T04:18:38.484Z,10.46
2023-03-17T04:19:04.443Z,10.46
2023-03-17T04:19:37.234Z,10.46
2023-03-17T04:20:08.811Z,10.46
2023-03-17T04:20:37.182Z,10.46
2023-03-17T04:20:57.958Z,9.90
2023-03-17T04:21:28.342Z,9.90
2023-03-17T04:22:00.632Z,9.90
2023-03-17T04:22:17.160Z,9.33
2023-03-17T04:22:37.732Z,9.17
2023-03-17T04:23:04.517Z,8.45
2023-03-17T04:23:37.198Z,8.13
2023-03-17T04:24:08.726Z,7.24
2023-03-17T04:24:37.295Z,7.24
2023-03-17T04:24:57.208Z,6.84
2023-03-17T04:25:28.660Z,6.43
2023-03-17T04:26:00.396Z,6.43
2023-03-17T04:26:17.083Z,6.43
2023-03-17T04:26:37.669Z,6.27
2023-03-17T04:27:05.951Z,6.11
2023-03-17T04:27:37.261Z,6.11
2023-03-17T04:28:08.597Z,6.11
2023-03-17T04:28:37.274Z,6.11
2023-03-17T04:28:57.285Z,6.11
2023-03-17T04:29:28.314Z,6.11
2023-03-17T04:30:01.741Z,6.11
2023-03-17T04:30:17.243Z,5.95
2023-03-17T04:30:38.852Z,5.95
2023-03-17T04:31:04.301Z,6.11
2023-03-17T04:31:37.204Z,6.11
2023-03-17T04:32:08.485Z,6.11
2023-03-17T04:32:37.226Z,5.95
2023-03-17T04:32:57.339Z,5.63
2023-03-17T04:33:28.284Z,5.47
2023-03-17T04:34:00.517Z,5.47
2023-03-17T04:34:17.234Z,5.47
2023-03-17T04:34:37.852Z,5.47
2023-03-17T04:35:05.829Z,5.47
2023-03-17T04:35:37.652Z,5.47
2023-03-17T04:36:08.557Z,5.47
2023-03-17T04:36:37.357Z,5.47
2023-03-17T04:36:57.270Z,5.47
2023-03-17T04:37:28.229Z,5.47
2023-03-17T04:38:00.372Z,5.47
2023-03-17T04:38:17.218Z,5.47
2023-03-17T04:38:38.388Z,5.47
2023-03-17T04:39:04.546Z,5.63
2023-03-17T04:39:37.175Z,5.95
2023-03-17T04:40:08.820Z,5.95
2023-03-17T04:40:37.301Z,6.27
2023-03-17T04:40:57.764Z,6.27
2023-03-17T04:41:28.298Z,6.27
2023-03-17T04:42:00.509Z,6.43
2023-03-17T04:42:17.107Z,6.43
2023-03-17T04:42:37.803Z,6.43
2023-03-17T04:43:04.389Z,6.43
2023-03-17T04:43:37.308Z,6.43
2023-03-17T04:44:08.581Z,6.68
2023-03-17T04:44:38.391Z,6.68
2023-03-17T04:44:57.767Z,6.43
2023-03-17T04:45:29.181Z,6.43
2023-03-17T04:46:00.623Z,6.27
2023-03-17T04:46:17.088Z,6.27
2023-03-17T04:46:38.297Z,6.11
2023-03-17T04:47:04.568Z,5.95
2023-03-17T04:47:37.276Z,5.63
2023-03-17T04:48:09.394Z,5.47
2023-03-17T04:48:37.216Z,5.47
2023-03-17T04:48:57.211Z,5.47
2023-03-17T04:49:28.372Z,5.47
2023-03-17T04:50:01.629Z,5.47
2023-03-17T04:50:17.156Z,5.47
2023-03-17T04:50:38.092Z,5.47
2023-03-17T04:51:04.582Z,5.47
2023-03-17T04:51:37.301Z,5.47
2023-03-17T04:52:09.274Z,5.47
2023-03-17T04:52:37.295Z,5.47
2023-03-17T04:52:57.283Z,5.47
2023-03-17T04:53:28.332Z,5.47
2023-03-17T04:54:00.795Z,5.47
2023-03-17T04:54:17.152Z,5.47
2023-03-17T04:54:37.751Z,5.47
2023-03-17T04:55:05.643Z,5.79
2023-03-17T04:55:37.299Z,6.27
2023-03-17T04:56:08.450Z,6.43
2023-03-17T04:56:37.273Z,6.84
2023-03-17T04:56:57.207Z,7.24
2023-03-17T04:57:28.304Z,7.24
2023-03-17T04:58:00.624Z,7.40
2023-03-17T04:58:29.841Z,7.72
2023-03-17T04:58:37.780Z,8.04
2023-03-17T04:59:04.852Z,8.04
2023-03-17T04:59:37.370Z,8.20
2023-03-17T05:00:09.722Z,8.20
2023-03-17T05:00:37.248Z,8.45
2023-03-17T05:00:57.741Z,8.69
2023-03-17T05:01:28.476Z,8.69
2023-03-17T05:02:00.745Z,8.69
2023-03-17T05:02:17.248Z,8.85
2023-03-17T05:02:38.369Z,8.85
2023-03-17T05:03:05.629Z,9.01
2023-03-17T05:03:37.241Z,9.17
2023-03-17T05:04:09.946Z,9.73
2023-03-17T05:04:37.388Z,9.89
2023-03-17T05:04:57.236Z,9.89
2023-03-17T05:05:28.770Z,9.49
2023-03-17T05:06:00.512Z,9.17
2023-03-17T05:06:17.168Z,9.17
2023-03-17T05:06:37.770Z,9.17
2023-03-17T05:07:04.541Z,9.17
2023-03-17T05:07:37.197Z,9.01
2023-03-17T05:08:08.995Z,9.01
2023-03-17T05:08:37.243Z,8.85
2023-03-17T05:08:57.274Z,8.69
2023-03-17T05:09:28.373Z,8.69
2023-03-17T05:10:01.585Z,8.85
2023-03-17T05:10:17.348Z,9.01
2023-03-17T05:10:38.773Z,8.85
2023-03-17T05:11:04.613Z,8.69
2023-03-17T05:11:37.231Z,8.69
2023-03-17T05:12:08.501Z,7.97
2023-03-17T05:12:37.316Z,7.24
2023-03-17T05:12:57.603Z,7.24
2023-03-17T05:13:28.319Z,7.24
2023-03-17T05:14:00.500Z,7.24
2023-03-17T05:14:17.149Z,7.08
2023-03-17T05:14:38.525Z,7.08
2023-03-17T05:15:06.213Z,7.08
2023-03-17T05:15:37.304Z,6.68
2023-03-17T05:16:08.601Z,6.68
2023-03-17T05:16:37.339Z,6.68
2023-03-17T05:16:57.275Z,6.43
2023-03-17T05:17:28.264Z,6.43
2023-03-17T05:18:00.393Z,6.43
2023-03-17T05:18:17.163Z,6.43
2023-03-17T05:18:38.441Z,6.43
2023-03-17T05:19:04.386Z,6.43
2023-03-17T05:19:37.214Z,6.43
2023-03-17T05:20:09.127Z,6.68
2023-03-17T05:20:37.212Z,6.92
2023-03-17T05:20:58.028Z,7.08
2023-03-17T05:21:28.525Z,7.24
2023-03-17T05:22:00.878Z,7.08
2023-03-17T05:22:17.373Z,6.92
2023-03-17T05:22:38.397Z,6.92
2023-03-17T05:23:04.661Z,7.08
2023-03-17T05:23:37.644Z,7.08
2023-03-17T05:24:08.668Z,6.92
2023-03-17T05:24:37.314Z,7.08
2023-03-17T05:24:57.478Z,7.24
2023-03-17T05:25:28.957Z,7.24
2023-03-17T05:26:00.981Z,7.24
2023-03-17T05:26:17.663Z,7.40
2023-03-17T05:26:37.996Z,7.72
2023-03-17T05:27:04.759Z,8.04
2023-03-17T05:27:37.528Z,8.61
2023-03-17T05:28:08.761Z,8.61
2023-03-17T05:28:37.748Z,8.45
2023-03-17T05:28:57.531Z,8.04
2023-03-17T05:29:28.611Z,7.72
2023-03-17T05:30:01.963Z,7.72
2023-03-17T05:30:17.842Z,8.04
2023-03-17T05:30:38.648Z,8.20
2023-03-17T05:31:04.839Z,8.45
2023-03-17T05:31:37.375Z,8.85
2023-03-17T05:32:08.734Z,9.01
2023-03-17T05:32:37.607Z,9.33
2023-03-17T05:32:57.712Z,9.33
2023-03-17T05:33:28.474Z,9.33
2023-03-17T05:34:00.752Z,9.33
2023-03-17T05:34:17.341Z,9.33
2023-03-17T05:34:38.000Z,8.85
2023-03-17T05:35:05.822Z,8.85
2023-03-17T05:35:37.511Z,8.85
2023-03-17T05:36:08.800Z,8.45
2023-03-17T05:36:37.496Z,8.45
2023-03-17T05:36:57.549Z,8.85
2023-03-17T05:37:28.598Z,8.85
2023-03-17T05:38:00.710Z,8.85
2023-03-17T05:38:17.459Z,8.85
2023-03-17T05:38:38.025Z,8.85
2023-03-17T05:39:04.639Z,8.85
2023-03-17T05:39:37.358Z,8.13
2023-03-17T05:40:09.280Z,7.72
2023-03-17T05:40:37.617Z,7.72
2023-03-17T05:40:57.861Z,7.72
2023-03-17T05:41:28.508Z,7.40
2023-03-17T05:42:00.643Z,7.40
2023-03-17T05:42:17.335Z,7.40
2023-03-17T05:42:38.528Z,7.40
2023-03-17T05:43:04.678Z,7.40
2023-03-17T05:43:37.720Z,7.72
2023-03-17T05:44:09.128Z,7.72
2023-03-17T05:44:37.431Z,7.72
2023-03-17T05:44:57.655Z,7.88
2023-03-17T05:45:30.934Z,7.88
2023-03-17T05:46:00.806Z,7.88
2023-03-17T05:46:19.884Z,7.72
2023-03-17T05:46:38.528Z,7.88
2023-03-17T05:47:05.420Z,7.88
2023-03-17T05:47:37.446Z,8.45
2023-03-17T05:48:08.935Z,8.61
2023-03-17T05:48:37.561Z,9.49
2023-03-17T05:48:57.509Z,9.65
2023-03-17T05:49:28.627Z,9.65
2023-03-17T05:50:01.309Z,9.49
2023-03-17T05:50:17.459Z,9.49
2023-03-17T05:50:38.961Z,9.49
2023-03-17T05:51:06.105Z,9.49
2023-03-17T05:51:37.415Z,9.49